sensor_id;sensor_type;location;lat;lon;timestamp;temperature;humidity
23544;DHT22;11950;51.230;4.012;2023-05-19T00:02:01;10.50;99.90
23544;DHT22;11950;51.230;4.012;2023-05-19T00:04:30;10.50;99.90
23544;DHT22;11950;51.230;4.012;2023-05-19T00:06:58;10.50;99.90
23544;DHT22;11950;51.230;4.012;2023-05-19T00:09:25;10.50;99.90
23544;DHT22;11950;51.230;4.012;2023-05-19T00:11:52;10.40;99.90
23544;DHT22;11950;51.230;4.012;2023-05-19T00:14:18;10.40;99.90
23544;DHT22;11950;51.230;4.012;2023-05-19T00:16:45;10.40;99.90
23544;DHT22;11950;51.230;4.012;2023-05-19T00:19:12;10.40;99.90
23544;DHT22;11950;51.230;4.012;2023-05-19T00:21:38;10.40;99.90
23544;DHT22;11950;51.230;4.012;2023-05-19T00:24:05;10.40;99.90
23544;DHT22;11950;51.230;4.012;2023-05-19T00:26:32;10.40;99.90
23544;DHT22;11950;51.230;4.012;2023-05-19T00:29:03;10.30;99.90
23544;DHT22;11950;51.230;4.012;2023-05-19T00:31:29;10.30;99.90
23544;DHT22;11950;51.230;4.012;2023-05-19T00:33:56;10.30;99.90
23544;DHT22;11950;51.230;4.012;2023-05-19T00:36:23;10.30;99.90
23544;DHT22;11950;51.230;4.012;2023-05-19T00:38:50;10.30;99.90
23544;DHT22;11950;51.230;4.012;2023-05-19T00:41:16;10.30;99.90
23544;DHT22;11950;51.230;4.012;2023-05-19T00:43:43;10.20;99.90
23544;DHT22;11950;51.230;4.012;2023-05-19T00:46:09;10.20;99.90
23544;DHT22;11950;51.230;4.012;2023-05-19T00:48:35;10.20;99.90
23544;DHT22;11950;51.230;4.012;2023-05-19T00:51:02;10.20;99.90
23544;DHT22;11950;51.230;4.012;2023-05-19T00:53:32;10.20;99.90
23544;DHT22;11950;51.230;4.012;2023-05-19T00:55:59;10.10;99.90
23544;DHT22;11950;51.230;4.012;2023-05-19T00:58:26;10.10;99.90
23544;DHT22;11950;51.230;4.012;2023-05-19T01:00:56;10.10;99.90
23544;DHT22;11950;51.230;4.012;2023-05-19T01:03:32;10.00;99.90
23544;DHT22;11950;51.230;4.012;2023-05-19T01:06:02;10.00;99.90
23544;DHT22;11950;51.230;4.012;2023-05-19T01:08:33;10.00;99.90
23544;DHT22;11950;51.230;4.012;2023-05-19T01:10:59;10.00;99.90
23544;DHT22;11950;51.230;4.012;2023-05-19T01:13:27;9.90;99.90
23544;DHT22;11950;51.230;4.012;2023-05-19T01:16:03;9.90;99.90
23544;DHT22;11950;51.230;4.012;2023-05-19T01:18:43;9.90;99.90
23544;DHT22;11950;51.230;4.012;2023-05-19T01:21:37;9.80;99.90
23544;DHT22;11950;51.230;4.012;2023-05-19T01:32:33;9.80;99.90
23544;DHT22;11950;51.230;4.012;2023-05-19T01:35:03;9.80;99.90
23544;DHT22;11950;51.230;4.012;2023-05-19T01:37:31;9.80;99.90
23544;DHT22;11950;51.230;4.012;2023-05-19T01:39:57;9.70;99.90
23544;DHT22;11950;51.230;4.012;2023-05-19T01:42:24;9.70;99.90
23544;DHT22;11950;51.230;4.012;2023-05-19T01:44:51;9.70;99.90
23544;DHT22;11950;51.230;4.012;2023-05-19T01:47:17;9.70;99.90
23544;DHT22;11950;51.230;4.012;2023-05-19T01:49:44;9.70;99.90
23544;DHT22;11950;51.230;4.012;2023-05-19T01:52:10;9.70;99.90
23544;DHT22;11950;51.230;4.012;2023-05-19T01:54:36;9.70;99.90
23544;DHT22;11950;51.230;4.012;2023-05-19T01:59:51;9.70;99.90
23544;DHT22;11950;51.230;4.012;2023-05-19T02:02:33;9.60;99.90
23544;DHT22;11950;51.230;4.012;2023-05-19T02:05:09;9.70;99.90
23544;DHT22;11950;51.230;4.012;2023-05-19T02:07:52;9.70;99.90
23544;DHT22;11950;51.230;4.012;2023-05-19T02:10:26;9.70;99.90
23544;DHT22;11950;51.230;4.012;2023-05-19T02:12:59;9.70;99.90
23544;DHT22;11950;51.230;4.012;2023-05-19T02:15:31;9.80;99.90
23544;DHT22;11950;51.230;4.012;2023-05-19T02:17:59;9.80;99.90
23544;DHT22;11950;51.230;4.012;2023-05-19T02:20:32;9.80;99.90
23544;DHT22;11950;51.230;4.012;2023-05-19T02:22:58;9.80;99.90
23544;DHT22;11950;51.230;4.012;2023-05-19T02:25:24;9.80;99.90
23544;DHT22;11950;51.230;4.012;2023-05-19T02:27:51;9.80;99.90
23544;DHT22;11950;51.230;4.012;2023-05-19T02:30:17;9.80;99.90
23544;DHT22;11950;51.230;4.012;2023-05-19T02:32:43;9.90;99.90
23544;DHT22;11950;51.230;4.012;2023-05-19T02:35:13;9.90;99.90
23544;DHT22;11950;51.230;4.012;2023-05-19T02:37:39;9.90;99.90
23544;DHT22;11950;51.230;4.012;2023-05-19T02:40:06;9.90;99.90
23544;DHT22;11950;51.230;4.012;2023-05-19T02:42:32;9.90;99.90
23544;DHT22;11950;51.230;4.012;2023-05-19T02:44:59;10.00;99.90
23544;DHT22;11950;51.230;4.012;2023-05-19T02:47:25;10.00;99.90
23544;DHT22;11950;51.230;4.012;2023-05-19T02:49:52;9.90;99.90
23544;DHT22;11950;51.230;4.012;2023-05-19T02:52:18;9.90;99.90
23544;DHT22;11950;51.230;4.012;2023-05-19T02:54:44;9.90;99.90
23544;DHT22;11950;51.230;4.012;2023-05-19T02:57:10;9.90;99.90
23544;DHT22;11950;51.230;4.012;2023-05-19T02:59:37;10.00;99.90
23544;DHT22;11950;51.230;4.012;2023-05-19T03:02:03;9.90;99.90
23544;DHT22;11950;51.230;4.012;2023-05-19T03:04:30;10.00;99.90
23544;DHT22;11950;51.230;4.012;2023-05-19T03:06:56;10.00;99.90
23544;DHT22;11950;51.230;4.012;2023-05-19T03:09:22;10.00;99.90
23544;DHT22;11950;51.230;4.012;2023-05-19T03:11:49;10.00;99.90
23544;DHT22;11950;51.230;4.012;2023-05-19T03:14:15;9.90;99.90
23544;DHT22;11950;51.230;4.012;2023-05-19T03:16:43;9.90;99.90
23544;DHT22;11950;51.230;4.012;2023-05-19T03:19:09;10.00;99.90
23544;DHT22;11950;51.230;4.012;2023-05-19T03:21:36;10.00;99.90
23544;DHT22;11950;51.230;4.012;2023-05-19T03:24:02;10.00;99.90
23544;DHT22;11950;51.230;4.012;2023-05-19T03:26:29;10.00;99.90
23544;DHT22;11950;51.230;4.012;2023-05-19T03:28:56;10.00;99.90
23544;DHT22;11950;51.230;4.012;2023-05-19T03:31:22;10.00;99.90
23544;DHT22;11950;51.230;4.012;2023-05-19T03:33:48;10.00;99.90
23544;DHT22;11950;51.230;4.012;2023-05-19T03:36:15;10.00;99.90
23544;DHT22;11950;51.230;4.012;2023-05-19T03:38:42;10.00;99.90
23544;DHT22;11950;51.230;4.012;2023-05-19T03:41:08;9.90;99.90
23544;DHT22;11950;51.230;4.012;2023-05-19T03:43:35;9.90;99.90
23544;DHT22;11950;51.230;4.012;2023-05-19T03:46:04;9.90;99.90
23544;DHT22;11950;51.230;4.012;2023-05-19T03:48:41;9.80;99.90
23544;DHT22;11950;51.230;4.012;2023-05-19T03:51:32;9.80;99.90
23544;DHT22;11950;51.230;4.012;2023-05-19T03:54:16;9.80;99.90
23544;DHT22;11950;51.230;4.012;2023-05-19T03:56:42;9.70;99.90
23544;DHT22;11950;51.230;4.012;2023-05-19T03:59:08;9.80;99.90
23544;DHT22;11950;51.230;4.012;2023-05-19T04:01:37;9.80;99.90
23544;DHT22;11950;51.230;4.012;2023-05-19T04:04:04;9.80;99.90
23544;DHT22;11950;51.230;4.012;2023-05-19T04:06:30;9.80;99.90
23544;DHT22;11950;51.230;4.012;2023-05-19T04:08:56;9.80;99.90
23544;DHT22;11950;51.230;4.012;2023-05-19T04:11:22;9.80;99.90
23544;DHT22;11950;51.230;4.012;2023-05-19T04:13:49;9.80;99.90
23544;DHT22;11950;51.230;4.012;2023-05-19T04:16:15;9.90;99.90
23544;DHT22;11950;51.230;4.012;2023-05-19T04:18:41;9.90;99.90
23544;DHT22;11950;51.230;4.012;2023-05-19T04:21:10;10.00;99.90
23544;DHT22;11950;51.230;4.012;2023-05-19T04:23:37;10.00;99.90
23544;DHT22;11950;51.230;4.012;2023-05-19T04:26:04;10.00;99.90
23544;DHT22;11950;51.230;4.012;2023-05-19T04:28:31;10.00;99.90
23544;DHT22;11950;51.230;4.012;2023-05-19T04:31:01;10.00;99.90
23544;DHT22;11950;51.230;4.012;2023-05-19T04:33:28;10.10;99.90
23544;DHT22;11950;51.230;4.012;2023-05-19T04:35:54;10.00;99.90
23544;DHT22;11950;51.230;4.012;2023-05-19T04:38:22;10.00;99.90
23544;DHT22;11950;51.230;4.012;2023-05-19T04:40:49;10.00;99.90
23544;DHT22;11950;51.230;4.012;2023-05-19T04:43:17;10.10;99.90
23544;DHT22;11950;51.230;4.012;2023-05-19T04:45:44;10.10;99.90
23544;DHT22;11950;51.230;4.012;2023-05-19T04:48:11;10.20;99.90
23544;DHT22;11950;51.230;4.012;2023-05-19T04:50:38;10.20;99.90
23544;DHT22;11950;51.230;4.012;2023-05-19T04:53:08;10.20;99.90
23544;DHT22;11950;51.230;4.012;2023-05-19T04:55:36;10.30;99.90
23544;DHT22;11950;51.230;4.012;2023-05-19T04:58:04;10.30;99.90
23544;DHT22;11950;51.230;4.012;2023-05-19T05:00:30;10.30;99.90
23544;DHT22;11950;51.230;4.012;2023-05-19T05:02:59;10.40;99.90
23544;DHT22;11950;51.230;4.012;2023-05-19T05:05:28;10.40;99.90
23544;DHT22;11950;51.230;4.012;2023-05-19T05:07:55;10.50;99.90
23544;DHT22;11950;51.230;4.012;2023-05-19T05:10:24;10.60;99.90
23544;DHT22;11950;51.230;4.012;2023-05-19T05:12:51;10.60;99.90
23544;DHT22;11950;51.230;4.012;2023-05-19T05:15:17;10.60;99.90
23544;DHT22;11950;51.230;4.012;2023-05-19T05:17:47;10.70;99.90
23544;DHT22;11950;51.230;4.012;2023-05-19T05:20:14;10.70;99.90
23544;DHT22;11950;51.230;4.012;2023-05-19T05:22:41;10.70;99.90
23544;DHT22;11950;51.230;4.012;2023-05-19T05:25:08;10.80;99.90
23544;DHT22;11950;51.230;4.012;2023-05-19T05:27:36;10.90;99.90
23544;DHT22;11950;51.230;4.012;2023-05-19T05:30:04;11.00;99.90
23544;DHT22;11950;51.230;4.012;2023-05-19T05:32:31;11.10;99.90
23544;DHT22;11950;51.230;4.012;2023-05-19T05:34:58;11.20;99.90
23544;DHT22;11950;51.230;4.012;2023-05-19T05:37:25;11.30;99.90
23544;DHT22;11950;51.230;4.012;2023-05-19T05:39:51;11.40;99.90
23544;DHT22;11950;51.230;4.012;2023-05-19T05:42:17;11.40;99.90
23544;DHT22;11950;51.230;4.012;2023-05-19T05:44:45;11.50;99.90
23544;DHT22;11950;51.230;4.012;2023-05-19T05:47:12;11.50;99.90
23544;DHT22;11950;51.230;4.012;2023-05-19T05:49:39;11.60;99.90
23544;DHT22;11950;51.230;4.012;2023-05-19T05:52:07;11.60;99.90
23544;DHT22;11950;51.230;4.012;2023-05-19T05:54:41;11.70;99.90
23544;DHT22;11950;51.230;4.012;2023-05-19T05:57:08;11.80;99.90
23544;DHT22;11950;51.230;4.012;2023-05-19T05:59:35;11.80;99.90
23544;DHT22;11950;51.230;4.012;2023-05-19T06:02:01;11.90;99.90
23544;DHT22;11950;51.230;4.012;2023-05-19T06:04:27;11.90;99.90
23544;DHT22;11950;51.230;4.012;2023-05-19T06:06:54;12.00;99.90
23544;DHT22;11950;51.230;4.012;2023-05-19T06:09:25;12.10;99.90
23544;DHT22;11950;51.230;4.012;2023-05-19T06:11:52;12.20;99.90
23544;DHT22;11950;51.230;4.012;2023-05-19T06:14:18;12.20;99.90
23544;DHT22;11950;51.230;4.012;2023-05-19T06:17:02;12.30;99.90
23544;DHT22;11950;51.230;4.012;2023-05-19T06:19:29;12.40;99.90
23544;DHT22;11950;51.230;4.012;2023-05-19T06:21:55;12.50;99.90
23544;DHT22;11950;51.230;4.012;2023-05-19T06:24:22;12.60;99.90
23544;DHT22;11950;51.230;4.012;2023-05-19T06:26:48;12.70;99.90
23544;DHT22;11950;51.230;4.012;2023-05-19T06:29:16;13.00;99.90
23544;DHT22;11950;51.230;4.012;2023-05-19T06:31:42;13.20;99.90
23544;DHT22;11950;51.230;4.012;2023-05-19T06:34:11;13.50;99.90
23544;DHT22;11950;51.230;4.012;2023-05-19T06:36:41;13.80;99.90
23544;DHT22;11950;51.230;4.012;2023-05-19T06:39:08;14.10;99.90
23544;DHT22;11950;51.230;4.012;2023-05-19T06:41:35;14.30;99.90
23544;DHT22;11950;51.230;4.012;2023-05-19T06:44:03;14.60;99.90
23544;DHT22;11950;51.230;4.012;2023-05-19T06:46:32;14.70;99.90
23544;DHT22;11950;51.230;4.012;2023-05-19T06:48:58;14.80;99.90
23544;DHT22;11950;51.230;4.012;2023-05-19T06:51:27;15.00;99.90
23544;DHT22;11950;51.230;4.012;2023-05-19T06:53:55;15.10;99.90
23544;DHT22;11950;51.230;4.012;2023-05-19T06:56:23;15.20;99.90
23544;DHT22;11950;51.230;4.012;2023-05-19T06:58:50;15.40;99.90
23544;DHT22;11950;51.230;4.012;2023-05-19T07:01:17;15.50;99.90
23544;DHT22;11950;51.230;4.012;2023-05-19T07:03:49;15.60;99.90
23544;DHT22;11950;51.230;4.012;2023-05-19T07:06:15;15.80;99.90
23544;DHT22;11950;51.230;4.012;2023-05-19T07:08:42;15.80;99.90
23544;DHT22;11950;51.230;4.012;2023-05-19T07:11:08;16.00;99.90
23544;DHT22;11950;51.230;4.012;2023-05-19T07:13:34;16.10;99.90
23544;DHT22;11950;51.230;4.012;2023-05-19T07:16:01;16.20;99.90
23544;DHT22;11950;51.230;4.012;2023-05-19T07:18:28;16.30;99.90
23544;DHT22;11950;51.230;4.012;2023-05-19T07:20:57;16.30;99.90
23544;DHT22;11950;51.230;4.012;2023-05-19T07:23:24;16.50;99.90
23544;DHT22;11950;51.230;4.012;2023-05-19T07:25:53;16.50;99.90
23544;DHT22;11950;51.230;4.012;2023-05-19T07:28:21;16.60;99.90
23544;DHT22;11950;51.230;4.012;2023-05-19T07:30:47;16.60;99.90
23544;DHT22;11950;51.230;4.012;2023-05-19T07:33:14;16.60;99.90
23544;DHT22;11950;51.230;4.012;2023-05-19T07:35:41;16.60;99.90
23544;DHT22;11950;51.230;4.012;2023-05-19T07:38:07;16.50;99.90
23544;DHT22;11950;51.230;4.012;2023-05-19T07:40:33;16.50;99.90
23544;DHT22;11950;51.230;4.012;2023-05-19T07:42:59;16.50;99.90
23544;DHT22;11950;51.230;4.012;2023-05-19T07:45:26;16.50;99.90
23544;DHT22;11950;51.230;4.012;2023-05-19T07:47:53;16.50;99.90
23544;DHT22;11950;51.230;4.012;2023-05-19T07:50:19;16.60;99.90
23544;DHT22;11950;51.230;4.012;2023-05-19T07:52:45;16.60;99.90
23544;DHT22;11950;51.230;4.012;2023-05-19T07:55:11;16.60;99.90
23544;DHT22;11950;51.230;4.012;2023-05-19T07:57:38;16.60;99.90
23544;DHT22;11950;51.230;4.012;2023-05-19T08:00:05;16.60;99.90
23544;DHT22;11950;51.230;4.012;2023-05-19T08:02:37;16.50;99.90
23544;DHT22;11950;51.230;4.012;2023-05-19T08:05:04;16.60;99.90
23544;DHT22;11950;51.230;4.012;2023-05-19T08:07:36;16.60;99.90
23544;DHT22;11950;51.230;4.012;2023-05-19T08:10:03;16.60;99.90
23544;DHT22;11950;51.230;4.012;2023-05-19T08:12:29;16.60;99.90
23544;DHT22;11950;51.230;4.012;2023-05-19T08:14:55;16.60;99.90
23544;DHT22;11950;51.230;4.012;2023-05-19T08:17:21;16.70;99.90
23544;DHT22;11950;51.230;4.012;2023-05-19T08:19:48;16.70;99.90
23544;DHT22;11950;51.230;4.012;2023-05-19T08:22:14;16.80;99.90
23544;DHT22;11950;51.230;4.012;2023-05-19T08:24:40;16.80;99.90
23544;DHT22;11950;51.230;4.012;2023-05-19T08:27:08;16.90;99.90
23544;DHT22;11950;51.230;4.012;2023-05-19T08:29:34;16.90;99.90
23544;DHT22;11950;51.230;4.012;2023-05-19T08:32:01;16.90;99.90
23544;DHT22;11950;51.230;4.012;2023-05-19T08:34:27;17.00;99.90
23544;DHT22;11950;51.230;4.012;2023-05-19T08:36:53;17.10;99.90
23544;DHT22;11950;51.230;4.012;2023-05-19T08:39:22;17.20;99.90
23544;DHT22;11950;51.230;4.012;2023-05-19T08:41:53;17.30;99.90
23544;DHT22;11950;51.230;4.012;2023-05-19T08:44:19;17.40;99.90
23544;DHT22;11950;51.230;4.012;2023-05-19T08:46:46;17.50;99.90
23544;DHT22;11950;51.230;4.012;2023-05-19T08:49:13;17.60;99.90
23544;DHT22;11950;51.230;4.012;2023-05-19T08:54:24;17.80;99.90
23544;DHT22;11950;51.230;4.012;2023-05-19T08:56:54;17.90;99.90
23544;DHT22;11950;51.230;4.012;2023-05-19T08:59:21;18.00;99.90
23544;DHT22;11950;51.230;4.012;2023-05-19T09:01:47;18.10;99.90
23544;DHT22;11950;51.230;4.012;2023-05-19T09:04:15;18.10;99.90
23544;DHT22;11950;51.230;4.012;2023-05-19T09:06:42;18.30;99.90
23544;DHT22;11950;51.230;4.012;2023-05-19T09:09:10;18.40;99.90
23544;DHT22;11950;51.230;4.012;2023-05-19T09:11:36;18.40;99.90
23544;DHT22;11950;51.230;4.012;2023-05-19T09:14:06;18.50;99.90
23544;DHT22;11950;51.230;4.012;2023-05-19T09:16:32;18.70;99.90
23544;DHT22;11950;51.230;4.012;2023-05-19T09:18:58;18.80;99.90
23544;DHT22;11950;51.230;4.012;2023-05-19T09:21:29;18.80;99.90
23544;DHT22;11950;51.230;4.012;2023-05-19T09:23:57;19.00;99.90
23544;DHT22;11950;51.230;4.012;2023-05-19T09:26:24;19.10;99.90
23544;DHT22;11950;51.230;4.012;2023-05-19T09:29:01;19.20;99.90
23544;DHT22;11950;51.230;4.012;2023-05-19T09:31:31;19.30;99.90
23544;DHT22;11950;51.230;4.012;2023-05-19T09:34:00;19.40;99.90
23544;DHT22;11950;51.230;4.012;2023-05-19T09:36:28;19.50;99.90
23544;DHT22;11950;51.230;4.012;2023-05-19T09:38:54;19.50;99.90
23544;DHT22;11950;51.230;4.012;2023-05-19T09:41:21;19.40;99.90
23544;DHT22;11950;51.230;4.012;2023-05-19T09:43:54;19.50;99.90
23544;DHT22;11950;51.230;4.012;2023-05-19T09:46:26;19.50;99.90
23544;DHT22;11950;51.230;4.012;2023-05-19T09:48:57;19.50;99.90
23544;DHT22;11950;51.230;4.012;2023-05-19T09:51:23;19.60;99.90
23544;DHT22;11950;51.230;4.012;2023-05-19T09:53:51;19.60;99.90
23544;DHT22;11950;51.230;4.012;2023-05-19T09:56:18;19.60;99.90
23544;DHT22;11950;51.230;4.012;2023-05-19T09:58:48;19.60;99.90
23544;DHT22;11950;51.230;4.012;2023-05-19T10:01:15;19.60;99.90
23544;DHT22;11950;51.230;4.012;2023-05-19T10:03:42;19.80;99.90
23544;DHT22;11950;51.230;4.012;2023-05-19T10:06:10;19.90;99.90
23544;DHT22;11950;51.230;4.012;2023-05-19T10:08:36;19.90;99.90
23544;DHT22;11950;51.230;4.012;2023-05-19T10:11:04;19.90;99.90
23544;DHT22;11950;51.230;4.012;2023-05-19T10:13:31;19.90;99.90
23544;DHT22;11950;51.230;4.012;2023-05-19T10:15:58;20.00;99.90
23544;DHT22;11950;51.230;4.012;2023-05-19T10:18:25;20.00;99.90
23544;DHT22;11950;51.230;4.012;2023-05-19T10:20:53;20.00;99.90
23544;DHT22;11950;51.230;4.012;2023-05-19T10:23:19;20.00;99.90
23544;DHT22;11950;51.230;4.012;2023-05-19T10:25:46;20.00;99.90
23544;DHT22;11950;51.230;4.012;2023-05-19T10:28:15;20.10;99.90
23544;DHT22;11950;51.230;4.012;2023-05-19T10:30:44;20.10;99.90
23544;DHT22;11950;51.230;4.012;2023-05-19T10:33:15;20.20;99.90
23544;DHT22;11950;51.230;4.012;2023-05-19T10:36:47;20.20;99.90
23544;DHT22;11950;51.230;4.012;2023-05-19T10:38:55;20.30;99.90
23544;DHT22;11950;51.230;4.012;2023-05-19T10:41:26;20.40;99.90
23544;DHT22;11950;51.230;4.012;2023-05-19T10:46:52;20.60;99.90
23544;DHT22;11950;51.230;4.012;2023-05-19T10:49:21;20.60;99.90
23544;DHT22;11950;51.230;4.012;2023-05-19T10:51:48;20.60;99.90
23544;DHT22;11950;51.230;4.012;2023-05-19T10:54:14;20.60;99.90
23544;DHT22;11950;51.230;4.012;2023-05-19T10:56:43;20.50;99.90
23544;DHT22;11950;51.230;4.012;2023-05-19T10:59:32;20.40;99.90
23544;DHT22;11950;51.230;4.012;2023-05-19T11:02:06;20.30;99.90
23544;DHT22;11950;51.230;4.012;2023-05-19T11:04:48;20.30;99.90
23544;DHT22;11950;51.230;4.012;2023-05-19T11:07:20;20.30;99.90
23544;DHT22;11950;51.230;4.012;2023-05-19T11:09:56;20.30;99.90
23544;DHT22;11950;51.230;4.012;2023-05-19T11:12:23;20.30;99.90
23544;DHT22;11950;51.230;4.012;2023-05-19T11:14:53;20.30;99.90
23544;DHT22;11950;51.230;4.012;2023-05-19T11:17:19;20.40;99.90
23544;DHT22;11950;51.230;4.012;2023-05-19T11:19:54;20.40;99.90
23544;DHT22;11950;51.230;4.012;2023-05-19T11:22:27;20.40;99.90
23544;DHT22;11950;51.230;4.012;2023-05-19T11:24:53;20.40;99.90
23544;DHT22;11950;51.230;4.012;2023-05-19T11:27:28;20.50;99.90
23544;DHT22;11950;51.230;4.012;2023-05-19T11:32:29;20.60;99.90
23544;DHT22;11950;51.230;4.012;2023-05-19T11:34:56;20.60;99.90
23544;DHT22;11950;51.230;4.012;2023-05-19T11:37:23;20.70;99.90
23544;DHT22;11950;51.230;4.012;2023-05-19T11:39:50;20.70;99.90
23544;DHT22;11950;51.230;4.012;2023-05-19T11:42:17;20.70;99.90
23544;DHT22;11950;51.230;4.012;2023-05-19T11:44:46;20.60;99.90
23544;DHT22;11950;51.230;4.012;2023-05-19T11:47:13;20.50;99.90
23544;DHT22;11950;51.230;4.012;2023-05-19T11:49:50;20.50;99.90
23544;DHT22;11950;51.230;4.012;2023-05-19T11:52:23;20.50;99.90
23544;DHT22;11950;51.230;4.012;2023-05-19T11:54:50;20.40;99.90
23544;DHT22;11950;51.230;4.012;2023-05-19T11:57:16;20.40;99.90
23544;DHT22;11950;51.230;4.012;2023-05-19T11:59:42;20.50;99.90
23544;DHT22;11950;51.230;4.012;2023-05-19T12:02:21;20.60;99.90
23544;DHT22;11950;51.230;4.012;2023-05-19T12:04:50;20.60;99.90
23544;DHT22;11950;51.230;4.012;2023-05-19T12:07:22;20.70;99.90
23544;DHT22;11950;51.230;4.012;2023-05-19T12:09:50;20.70;99.90
23544;DHT22;11950;51.230;4.012;2023-05-19T12:12:18;20.80;99.90
23544;DHT22;11950;51.230;4.012;2023-05-19T12:14:48;20.80;99.90
23544;DHT22;11950;51.230;4.012;2023-05-19T12:17:23;20.80;99.90
23544;DHT22;11950;51.230;4.012;2023-05-19T12:19:50;20.80;99.90
23544;DHT22;11950;51.230;4.012;2023-05-19T12:22:16;20.90;99.90
23544;DHT22;11950;51.230;4.012;2023-05-19T12:24:44;20.90;99.90
23544;DHT22;11950;51.230;4.012;2023-05-19T12:27:23;20.90;99.90
23544;DHT22;11950;51.230;4.012;2023-05-19T12:29:54;20.90;99.90
23544;DHT22;11950;51.230;4.012;2023-05-19T12:32:27;20.90;99.90
23544;DHT22;11950;51.230;4.012;2023-05-19T12:34:56;21.00;99.90
23544;DHT22;11950;51.230;4.012;2023-05-19T12:37:26;21.00;99.90
23544;DHT22;11950;51.230;4.012;2023-05-19T12:39:52;20.90;99.90
23544;DHT22;11950;51.230;4.012;2023-05-19T12:42:20;20.90;99.90
23544;DHT22;11950;51.230;4.012;2023-05-19T12:44:48;20.90;99.90
23544;DHT22;11950;51.230;4.012;2023-05-19T12:47:17;21.00;99.90
23544;DHT22;11950;51.230;4.012;2023-05-19T12:50:06;20.90;99.90
23544;DHT22;11950;51.230;4.012;2023-05-19T12:52:46;21.00;99.90
23544;DHT22;11950;51.230;4.012;2023-05-19T12:55:13;21.00;99.90
23544;DHT22;11950;51.230;4.012;2023-05-19T12:57:43;21.10;99.90
23544;DHT22;11950;51.230;4.012;2023-05-19T13:00:17;21.10;99.90
23544;DHT22;11950;51.230;4.012;2023-05-19T13:03:00;21.10;99.50
23544;DHT22;11950;51.230;4.012;2023-05-19T13:05:27;21.00;99.90
23544;DHT22;11950;51.230;4.012;2023-05-19T13:07:58;20.90;99.90
23544;DHT22;11950;51.230;4.012;2023-05-19T13:10:25;20.90;99.90
23544;DHT22;11950;51.230;4.012;2023-05-19T13:12:53;20.90;99.90
23544;DHT22;11950;51.230;4.012;2023-05-19T13:15:28;20.90;99.90
23544;DHT22;11950;51.230;4.012;2023-05-19T13:17:56;20.80;99.90
23544;DHT22;11950;51.230;4.012;2023-05-19T13:20:23;20.90;99.90
23544;DHT22;11950;51.230;4.012;2023-05-19T13:22:49;20.80;99.90
23544;DHT22;11950;51.230;4.012;2023-05-19T13:25:16;20.80;99.90
23544;DHT22;11950;51.230;4.012;2023-05-19T13:27:44;20.80;99.90
23544;DHT22;11950;51.230;4.012;2023-05-19T13:30:11;20.80;99.90
23544;DHT22;11950;51.230;4.012;2023-05-19T13:32:37;20.80;99.90
23544;DHT22;11950;51.230;4.012;2023-05-19T13:35:03;20.80;99.90
23544;DHT22;11950;51.230;4.012;2023-05-19T13:37:30;20.90;99.90
23544;DHT22;11950;51.230;4.012;2023-05-19T13:39:57;21.00;99.90
23544;DHT22;11950;51.230;4.012;2023-05-19T13:42:23;21.00;99.90
23544;DHT22;11950;51.230;4.012;2023-05-19T13:44:53;21.00;99.60
23544;DHT22;11950;51.230;4.012;2023-05-19T13:47:24;21.10;99.90
23544;DHT22;11950;51.230;4.012;2023-05-19T13:49:51;21.20;99.90
23544;DHT22;11950;51.230;4.012;2023-05-19T13:52:18;21.20;99.90
23544;DHT22;11950;51.230;4.012;2023-05-19T13:54:45;21.00;99.60
23544;DHT22;11950;51.230;4.012;2023-05-19T13:57:12;21.00;99.30
23544;DHT22;11950;51.230;4.012;2023-05-19T13:59:38;21.00;99.80
23544;DHT22;11950;51.230;4.012;2023-05-19T14:02:05;21.10;99.90
23544;DHT22;11950;51.230;4.012;2023-05-19T14:04:32;21.20;99.90
23544;DHT22;11950;51.230;4.012;2023-05-19T14:07:01;21.20;99.90
23544;DHT22;11950;51.230;4.012;2023-05-19T14:09:27;21.20;99.90
23544;DHT22;11950;51.230;4.012;2023-05-19T14:11:53;21.20;99.90
23544;DHT22;11950;51.230;4.012;2023-05-19T14:14:20;21.20;99.50
23544;DHT22;11950;51.230;4.012;2023-05-19T14:16:46;21.30;99.70
23544;DHT22;11950;51.230;4.012;2023-05-19T14:19:15;21.30;99.40
23544;DHT22;11950;51.230;4.012;2023-05-19T14:21:41;21.30;99.20
23544;DHT22;11950;51.230;4.012;2023-05-19T14:24:08;21.40;99.30
23544;DHT22;11950;51.230;4.012;2023-05-19T14:26:34;21.30;97.90
23544;DHT22;11950;51.230;4.012;2023-05-19T14:29:00;21.40;99.40
23544;DHT22;11950;51.230;4.012;2023-05-19T14:31:27;21.40;97.60
23544;DHT22;11950;51.230;4.012;2023-05-19T14:33:53;21.30;98.60
23544;DHT22;11950;51.230;4.012;2023-05-19T14:36:19;21.40;99.30
23544;DHT22;11950;51.230;4.012;2023-05-19T14:38:46;21.40;98.80
23544;DHT22;11950;51.230;4.012;2023-05-19T14:41:12;21.50;99.10
23544;DHT22;11950;51.230;4.012;2023-05-19T14:43:38;21.50;96.90
23544;DHT22;11950;51.230;4.012;2023-05-19T14:46:07;21.50;97.30
23544;DHT22;11950;51.230;4.012;2023-05-19T14:48:33;21.50;97.70
23544;DHT22;11950;51.230;4.012;2023-05-19T14:51:00;21.50;98.60
23544;DHT22;11950;51.230;4.012;2023-05-19T14:53:26;21.50;97.40
23544;DHT22;11950;51.230;4.012;2023-05-19T14:55:52;21.50;96.90
23544;DHT22;11950;51.230;4.012;2023-05-19T14:58:18;21.60;97.00
23544;DHT22;11950;51.230;4.012;2023-05-19T15:00:46;21.60;95.60
23544;DHT22;11950;51.230;4.012;2023-05-19T15:03:12;21.50;96.40
23544;DHT22;11950;51.230;4.012;2023-05-19T15:05:39;21.50;96.30
23544;DHT22;11950;51.230;4.012;2023-05-19T15:08:05;21.60;97.30
23544;DHT22;11950;51.230;4.012;2023-05-19T15:10:32;21.60;96.40
23544;DHT22;11950;51.230;4.012;2023-05-19T15:12:58;21.60;95.20
23544;DHT22;11950;51.230;4.012;2023-05-19T15:15:26;21.60;94.60
23544;DHT22;11950;51.230;4.012;2023-05-19T15:17:53;21.60;95.80
23544;DHT22;11950;51.230;4.012;2023-05-19T15:20:19;21.60;96.70
23544;DHT22;11950;51.230;4.012;2023-05-19T15:22:45;21.60;95.80
23544;DHT22;11950;51.230;4.012;2023-05-19T15:25:11;21.50;93.70
23544;DHT22;11950;51.230;4.012;2023-05-19T15:27:38;21.50;93.80
23544;DHT22;11950;51.230;4.012;2023-05-19T15:30:05;21.50;95.00
23544;DHT22;11950;51.230;4.012;2023-05-19T15:32:31;21.40;95.40
23544;DHT22;11950;51.230;4.012;2023-05-19T15:34:57;21.40;96.90
23544;DHT22;11950;51.230;4.012;2023-05-19T15:37:24;21.40;94.60
23544;DHT22;11950;51.230;4.012;2023-05-19T15:39:50;21.30;95.30
23544;DHT22;11950;51.230;4.012;2023-05-19T15:42:16;21.30;95.60
23544;DHT22;11950;51.230;4.012;2023-05-19T15:44:42;21.30;96.00
23544;DHT22;11950;51.230;4.012;2023-05-19T15:47:11;21.30;98.20
23544;DHT22;11950;51.230;4.012;2023-05-19T15:49:37;21.30;96.90
23544;DHT22;11950;51.230;4.012;2023-05-19T15:52:03;21.30;96.50
23544;DHT22;11950;51.230;4.012;2023-05-19T15:54:32;21.30;96.90
23544;DHT22;11950;51.230;4.012;2023-05-19T15:56:59;21.30;95.70
23544;DHT22;11950;51.230;4.012;2023-05-19T15:59:25;21.30;95.70